Time;durP1;ratioP1;P1;durP2;ratioP2;P2;SDS_P1;SDS_P2;PMS_P1;PMS_P2;Temp;Humidity;BMP_temperature;BMP_pressure;BME280_temperature;BME280_humidity;BME280_pressure;Samples;Min_cycle;Max_cycle;Signal;HPM_P1;HPM_P2
2021/04/20 00:00:10;;;;;;;7.40;4.60;;;8.50;99.90;;;;;;5025703;28;20243;-44
2021/04/20 00:02:37;;;;;;;5.87;4.33;;;8.50;99.90;;;;;;5010180;28;20233;-44
2021/04/20 00:05:10;;;;;;;8.27;4.10;;;8.40;99.90;;;;;;5017254;28;20625;-44
2021/04/20 00:07:37;;;;;;;6.47;4.73;;;8.30;99.90;;;;;;5020854;28;20233;-44
2021/04/20 00:10:08;;;;;;;7.30;4.83;;;8.20;99.90;;;;;;5029568;28;20237;-44
2021/04/20 00:12:35;;;;;;;5.37;3.90;;;8.20;99.90;;;;;;5010216;28;20241;-44
2021/04/20 00:15:07;;;;;;;6.17;4.40;;;8.20;99.90;;;;;;5018422;28;20280;-44
2021/04/20 00:17:34;;;;;;;8.50;4.50;;;8.20;99.90;;;;;;5029571;28;20231;-44
2021/04/20 00:20:04;;;;;;;7.50;4.20;;;8.10;99.90;;;;;;5030129;28;20774;-44
2021/04/20 00:22:32;;;;;;;8.03;4.67;;;8.10;99.90;;;;;;5030092;28;20702;-44
2021/04/20 00:24:59;;;;;;;7.07;4.23;;;8.00;99.90;;;;;;5023646;28;20251;-44
2021/04/20 00:27:27;;;;;;;7.00;4.43;;;7.90;99.90;;;;;;5010768;28;20237;-44
2021/04/20 00:29:54;;;;;;;6.93;5.03;;;7.90;99.90;;;;;;5009992;28;20293;-44
2021/04/20 00:32:21;;;;;;;9.47;5.60;;;7.80;99.90;;;;;;5027874;28;20271;-44
2021/04/20 00:34:49;;;;;;;12.47;4.97;;;7.70;99.90;;;;;;5029671;28;20308;-44
2021/04/20 00:37:16;;;;;;;8.43;4.70;;;7.60;99.90;;;;;;5029495;28;20237;-44
2021/04/20 00:39:44;;;;;;;7.87;5.27;;;7.50;99.90;;;;;;5029767;28;20255;-43
2021/04/20 00:42:11;;;;;;;5.70;4.30;;;7.50;99.90;;;;;;5029470;28;20275;-44
2021/04/20 00:44:39;;;;;;;7.17;4.27;;;7.50;99.90;;;;;;5026495;28;20241;-44
2021/04/20 00:47:06;;;;;;;7.50;4.57;;;7.50;99.90;;;;;;5010173;28;20259;-44
2021/04/20 00:49:33;;;;;;;6.60;4.30;;;7.40;99.90;;;;;;5009970;28;20307;-44
2021/04/20 00:52:01;;;;;;;6.47;3.80;;;7.40;99.90;;;;;;5043773;28;20245;-44
2021/04/20 00:54:28;;;;;;;4.90;4.03;;;7.40;99.90;;;;;;5027808;28;20233;-44
2021/04/20 00:56:57;;;;;;;7.00;4.40;;;7.40;99.90;;;;;;5008589;28;20241;-44
2021/04/20 00:59:24;;;;;;;6.40;4.70;;;7.40;99.90;;;;;;5021295;28;20646;-44
2021/04/20 01:01:52;;;;;;;6.13;4.57;;;7.30;99.90;;;;;;5028042;28;20247;-44
2021/04/20 01:04:21;;;;;;;8.30;4.57;;;7.30;99.90;;;;;;5026073;28;20248;-45
2021/04/20 01:06:49;;;;;;;6.43;3.83;;;7.30;99.90;;;;;;5026910;28;20579;-44
2021/04/20 01:09:18;;;;;;;7.83;4.60;;;7.30;99.90;;;;;;5022837;28;20303;-43
2021/04/20 01:11:47;;;;;;;5.23;4.13;;;7.30;99.90;;;;;;5019284;28;20252;-44
2021/04/20 01:14:16;;;;;;;6.27;4.63;;;7.40;99.90;;;;;;5011459;28;20449;-44
2021/04/20 01:16:43;;;;;;;7.67;4.03;;;7.30;99.90;;;;;;5009693;28;20708;-44
2021/04/20 01:19:15;;;;;;;7.43;4.43;;;7.30;99.90;;;;;;5009576;28;20241;-43
2021/04/20 01:21:44;;;;;;;9.67;4.67;;;7.30;99.90;;;;;;5009107;28;20233;-44
2021/04/20 01:24:28;;;;;;;4.80;4.10;;;7.30;99.90;;;;;;5024796;28;20241;-44
2021/04/20 01:26:57;;;;;;;7.33;4.30;;;7.40;99.90;;;;;;5026233;28;20245;-44
2021/04/20 01:29:25;;;;;;;6.07;4.50;;;7.40;99.90;;;;;;5028254;28;20243;-43
2021/04/20 01:31:53;;;;;;;7.40;4.50;;;7.30;99.90;;;;;;5008461;28;20237;-44
2021/04/20 01:34:20;;;;;;;5.43;4.50;;;7.30;99.90;;;;;;5008940;28;20648;-44
2021/04/20 01:36:50;;;;;;;7.60;4.50;;;7.30;99.90;;;;;;5023514;28;20233;-44
2021/04/20 01:39:17;;;;;;;7.80;4.40;;;7.30;99.90;;;;;;5009064;28;20324;-44
2021/04/20 01:41:46;;;;;;;5.90;4.67;;;7.30;99.90;;;;;;5025673;28;20232;-44
2021/04/20 01:44:14;;;;;;;6.70;4.77;;;7.30;99.90;;;;;;5027028;28;20244;-43
2021/04/20 01:46:41;;;;;;;8.90;5.33;;;7.30;99.90;;;;;;5028379;28;20679;-44
2021/04/20 01:49:09;;;;;;;6.30;4.63;;;7.30;99.90;;;;;;5028077;28;20284;-44
2021/04/20 01:51:36;;;;;;;7.70;5.07;;;7.20;99.90;;;;;;5009219;28;20240;-44
2021/04/20 01:54:04;;;;;;;9.80;5.40;;;7.10;99.90;;;;;;5008642;28;20234;-44
2021/04/20 01:56:33;;;;;;;5.57;4.47;;;7.00;99.90;;;;;;5028419;28;20240;-45
2021/04/20 01:59:02;;;;;;;5.60;4.40;;;7.00;99.90;;;;;;5027578;28;20324;-44
2021/04/20 02:01:30;;;;;;;7.87;5.23;;;7.00;99.90;;;;;;5022062;28;20241;-44
2021/04/20 02:03:57;;;;;;;7.77;4.57;;;7.10;99.90;;;;;;5022097;28;20695;-45
2021/04/20 02:06:26;;;;;;;6.63;4.80;;;7.10;99.90;;;;;;5027131;28;20241;-47
2021/04/20 02:08:53;;;;;;;7.23;4.47;;;7.10;99.90;;;;;;5028521;28;20247;-46
2021/04/20 02:11:24;;;;;;;6.10;4.67;;;7.10;99.90;;;;;;5027696;28;20236;-45
2021/04/20 02:13:51;;;;;;;7.23;5.13;;;7.00;99.90;;;;;;5028064;28;20298;-46
2021/04/20 02:16:21;;;;;;;7.13;4.77;;;7.00;99.90;;;;;;5026374;28;20724;-46
2021/04/20 02:18:52;;;;;;;7.03;4.47;;;6.90;99.90;;;;;;5027916;28;20286;-47
2021/04/20 02:21:20;;;;;;;7.67;4.93;;;6.90;99.90;;;;;;5027907;28;20249;-46
2021/04/20 02:23:49;;;;;;;8.40;4.60;;;6.80;99.90;;;;;;5027735;28;20290;-46
2021/04/20 02:26:25;;;;;;;8.73;4.87;;;6.90;99.90;;;;;;5013236;28;20268;-46
2021/04/20 02:28:52;;;;;;;6.93;4.60;;;6.80;99.90;;;;;;5006340;28;20244;-46
2021/04/20 02:31:20;;;;;;;6.70;4.73;;;6.90;99.90;;;;;;5007370;28;20319;-46
2021/04/20 02:33:49;;;;;;;7.73;5.60;;;6.80;99.90;;;;;;5008706;28;20287;-46
2021/04/20 02:36:18;;;;;;;8.77;4.77;;;6.80;99.90;;;;;;5020682;28;20232;-46
2021/04/20 02:38:46;;;;;;;8.03;5.30;;;6.70;99.90;;;;;;5007167;28;20235;-46
2021/04/20 02:41:18;;;;;;;5.63;4.30;;;6.70;99.90;;;;;;5017767;28;20229;-46
2021/04/20 02:43:46;;;;;;;6.07;5.17;;;6.70;99.90;;;;;;5010449;28;20237;-47
2021/04/20 02:46:15;;;;;;;8.90;4.13;;;6.70;99.90;;;;;;5007934;28;20324;-46
2021/04/20 02:48:44;;;;;;;8.57;4.53;;;6.70;99.90;;;;;;5007982;28;20299;-46
2021/04/20 02:51:14;;;;;;;7.23;5.03;;;6.60;99.90;;;;;;5007509;28;20241;-46
2021/04/20 02:53:44;;;;;;;7.63;5.27;;;6.50;99.90;;;;;;5019786;28;20243;-47
2021/04/20 02:56:15;;;;;;;7.20;5.10;;;6.50;99.90;;;;;;5027849;28;20244;-46
2021/04/20 02:58:45;;;;;;;8.67;5.00;;;6.40;99.90;;;;;;5021220;28;20244;-46
2021/04/20 03:01:21;;;;;;;8.53;4.97;;;6.50;99.90;;;;;;5017451;28;20329;-46
2021/04/20 03:03:51;;;;;;;6.60;4.87;;;6.50;99.90;;;;;;5014753;28;20719;-46
2021/04/20 03:06:20;;;;;;;9.50;5.27;;;6.40;99.90;;;;;;5007320;28;20244;-46
2021/04/20 03:08:50;;;;;;;8.50;4.90;;;6.40;99.90;;;;;;5007637;28;20229;-46
2021/04/20 03:11:22;;;;;;;6.53;5.27;;;6.40;99.90;;;;;;5007104;28;20241;-44
2021/04/20 03:13:50;;;;;;;6.27;5.23;;;6.40;99.90;;;;;;5020985;28;20649;-44
2021/04/20 03:16:30;;;;;;;8.47;5.40;;;6.40;99.90;;;;;;5027164;28;20278;-44
2021/04/20 03:18:59;;;;;;;7.33;4.87;;;6.30;99.90;;;;;;5027547;28;20370;-44
2021/04/20 03:21:27;;;;;;;9.77;5.20;;;6.30;99.90;;;;;;5018562;28;20288;-44
2021/04/20 03:23:56;;;;;;;10.03;5.37;;;6.20;99.90;;;;;;5007282;28;20316;-44
2021/04/20 03:26:38;;;;;;;8.80;5.60;;;6.10;99.90;;;;;;5007969;28;20241;-45
2021/04/20 03:29:08;;;;;;;9.03;5.40;;;6.10;99.90;;;;;;5007544;28;20719;-44
2021/04/20 03:31:38;;;;;;;10.27;6.38;;;6.20;99.90;;;;;;5013873;28;21187;-46
2021/04/20 03:34:17;;;;;;;7.37;5.20;;;6.10;99.90;;;;;;5026964;28;20241;-46
2021/04/20 03:36:53;;;;;;;9.33;5.20;;;6.10;99.90;;;;;;5027310;28;20240;-46
2021/04/20 03:39:22;;;;;;;8.37;5.17;;;6.10;99.90;;;;;;5027267;28;20274;-46
2021/04/20 03:41:55;;;;;;;6.90;5.60;;;6.00;99.90;;;;;;5011753;28;20371;-46
2021/04/20 03:44:28;;;;;;;7.70;5.23;;;6.00;99.90;;;;;;5007657;28;20237;-46
2021/04/20 03:47:00;;;;;;;8.80;5.60;;;6.00;99.90;;;;;;5007580;28;20249;-46
2021/04/20 03:49:33;;;;;;;6.37;5.10;;;6.00;99.90;;;;;;5007294;28;20240;-48
2021/04/20 03:52:02;;;;;;;7.13;5.20;;;6.00;99.90;;;;;;5011471;28;20237;-46
2021/04/20 03:54:31;;;;;;;8.53;5.33;;;5.90;99.90;;;;;;5023690;28;20355;-46
2021/04/20 03:57:04;;;;;;;10.87;6.17;;;6.00;99.90;;;;;;5018017;28;20301;-46
2021/04/20 03:59:32;;;;;;;9.40;5.53;;;5.90;99.90;;;;;;5025496;28;20240;-46
2021/04/20 04:02:01;;;;;;;7.90;5.80;;;5.80;99.90;;;;;;5026275;28;20595;-46
2021/04/20 04:04:30;;;;;;;8.00;5.83;;;5.80;99.90;;;;;;5026888;28;20240;-45
2021/04/20 04:07:00;;;;;;;8.47;6.00;;;5.70;99.90;;;;;;5028936;28;20232;-46
2021/04/20 04:09:29;;;;;;;7.87;5.17;;;5.70;99.90;;;;;;5010589;28;20233;-46
2021/04/20 04:12:01;;;;;;;7.43;5.57;;;5.60;99.90;;;;;;5010394;28;20663;-46
2021/04/20 04:14:32;;;;;;;8.37;5.80;;;5.70;99.90;;;;;;5010799;28;20272;-46
2021/04/20 04:17:05;;;;;;;8.70;5.80;;;5.60;99.90;;;;;;5010516;28;20603;-46
2021/04/20 04:19:39;;;;;;;7.57;6.17;;;5.70;99.90;;;;;;5018460;28;20658;-46
2021/04/20 04:22:11;;;;;;;9.87;6.17;;;5.70;99.90;;;;;;5010031;28;20236;-46
2021/04/20 04:24:46;;;;;;;7.83;6.03;;;5.60;99.90;;;;;;5010408;28;20234;-46
2021/04/20 04:27:17;;;;;;;10.30;6.17;;;5.60;99.90;;;;;;5012054;28;20294;-46
2021/04/20 04:29:48;;;;;;;8.87;5.60;;;5.50;99.90;;;;;;5029698;28;20240;-46
2021/04/20 04:32:18;;;;;;;7.43;6.03;;;5.50;99.90;;;;;;5011473;28;20565;-47
2021/04/20 04:34:48;;;;;;;9.13;5.87;;;5.50;99.90;;;;;;5009495;28;20237;-46
2021/04/20 04:37:16;;;;;;;12.90;6.50;;;5.60;99.90;;;;;;5010006;28;21165;-46
2021/04/20 04:39:44;;;;;;;11.43;6.93;;;5.60;99.90;;;;;;5009680;28;20233;-46
2021/04/20 04:42:13;;;;;;;12.10;7.47;;;5.70;99.90;;;;;;5009766;28;20328;-46
2021/04/20 04:44:41;;;;;;;12.50;7.40;;;5.70;99.90;;;;;;5009604;28;20241;-46
2021/04/20 04:47:08;;;;;;;8.47;6.67;;;5.70;99.90;;;;;;5009368;28;20237;-46
2021/04/20 04:49:38;;;;;;;10.73;6.50;;;5.70;99.90;;;;;;5009574;28;20592;-46
2021/04/20 04:52:08;;;;;;;9.77;7.30;;;5.60;99.90;;;;;;5004000;28;20745;-46
2021/04/20 04:54:36;;;;;;;10.00;6.63;;;5.50;99.90;;;;;;4999154;28;20461;-46
2021/04/20 04:57:07;;;;;;;8.57;6.07;;;5.50;99.90;;;;;;5002194;28;20230;-46
2021/04/20 04:59:36;;;;;;;9.40;6.73;;;5.60;99.90;;;;;;5005757;28;20233;-46
2021/04/20 05:02:05;;;;;;;7.77;5.97;;;5.60;99.90;;;;;;5016135;28;20231;-46
2021/04/20 05:04:33;;;;;;;9.03;6.70;;;5.70;99.90;;;;;;5013843;28;20299;-46
2021/04/20 05:07:01;;;;;;;12.83;6.43;;;5.70;99.90;;;;;;5015171;28;20237;-46
2021/04/20 05:09:30;;;;;;;9.33;6.07;;;5.70;99.90;;;;;;5007611;28;20282;-47
2021/04/20 05:11:58;;;;;;;11.70;6.80;;;5.80;99.90;;;;;;5023844;28;20303;-46
2021/04/20 05:14:26;;;;;;;11.37;6.53;;;5.90;99.90;;;;;;5017045;28;20229;-46
2021/04/20 05:16:55;;;;;;;10.70;6.80;;;5.90;99.90;;;;;;5029545;28;20315;-46
2021/04/20 05:19:27;;;;;;;12.77;7.47;;;6.10;99.90;;;;;;5029261;28;20592;-46
2021/04/20 05:21:56;;;;;;;11.57;7.40;;;6.30;99.90;;;;;;5020494;28;20244;-46
2021/04/20 05:24:24;;;;;;;11.90;7.50;;;6.40;99.90;;;;;;5028387;28;20694;-46
2021/04/20 05:26:52;;;;;;;8.90;7.10;;;6.50;99.90;;;;;;5023061;28;20628;-47
2021/04/20 05:29:20;;;;;;;11.20;7.47;;;6.50;99.90;;;;;;5017085;28;20244;-46
2021/04/20 05:31:48;;;;;;;11.43;7.83;;;6.50;99.90;;;;;;5015830;28;20225;-47
2021/04/20 05:34:19;;;;;;;14.07;7.70;;;6.60;99.90;;;;;;5020393;28;20229;-46
2021/04/20 05:36:47;;;;;;;11.27;8.63;;;6.70;99.90;;;;;;5012522;28;20684;-47
2021/04/20 05:39:16;;;;;;;13.00;8.13;;;6.80;99.90;;;;;;5025255;28;20519;-47
2021/04/20 05:41:44;;;;;;;11.57;8.60;;;6.90;99.90;;;;;;5024350;28;20751;-47
2021/04/20 05:44:14;;;;;;;13.60;8.73;;;7.00;99.90;;;;;;5015204;28;20237;-47
2021/04/20 05:46:46;;;;;;;10.60;8.67;;;7.10;99.90;;;;;;5024004;28;20809;-47
2021/04/20 05:49:15;;;;;;;12.17;9.37;;;7.20;99.90;;;;;;5026621;28;20319;-46
2021/04/20 05:51:42;;;;;;;18.47;9.63;;;7.30;99.90;;;;;;5042998;28;20696;-47
2021/04/20 05:54:11;;;;;;;18.10;9.47;;;7.40;99.90;;;;;;5025358;28;20659;-48
2021/04/20 05:56:39;;;;;;;11.67;9.00;;;7.50;99.90;;;;;;5024378;28;20224;-46
2021/04/20 05:59:06;;;;;;;17.47;9.93;;;7.70;99.90;;;;;;5027434;28;20314;-47
2021/04/20 06:01:40;;;;;;;15.77;9.00;;;7.80;99.90;;;;;;5022697;28;20241;-46
2021/04/20 06:04:10;;;;;;;15.20;9.23;;;7.90;99.90;;;;;;5027456;28;20290;-46
2021/04/20 06:06:41;;;;;;;16.27;9.40;;;8.10;99.90;;;;;;5026510;28;20233;-47
2021/04/20 06:09:10;;;;;;;12.10;9.17;;;8.20;99.90;;;;;;5026950;28;20232;-47
2021/04/20 06:11:40;;;;;;;14.03;9.00;;;8.40;99.90;;;;;;5007491;28;20238;-47
2021/04/20 06:14:08;;;;;;;14.17;8.63;;;8.50;99.90;;;;;;5019179;28;20343;-47
2021/04/20 06:16:38;;;;;;;12.47;9.10;;;8.70;99.90;;;;;;5023690;28;20592;-47
2021/04/20 06:19:06;;;;;;;11.37;8.53;;;8.90;99.90;;;;;;5021843;28;20859;-47
2021/04/20 06:21:35;;;;;;;12.67;9.07;;;9.00;99.90;;;;;;5027657;28;20237;-47
2021/04/20 06:24:05;;;;;;;12.60;7.90;;;9.20;99.90;;;;;;5027626;28;20241;-47
2021/04/20 06:26:35;;;;;;;13.10;8.63;;;9.30;99.90;;;;;;5012055;28;20238;-44
2021/04/20 06:29:03;;;;;;;10.70;8.00;;;9.50;99.90;;;;;;5008530;28;20242;-45
2021/04/20 06:31:33;;;;;;;13.50;8.20;;;9.70;99.90;;;;;;5007130;28;20265;-45
2021/04/20 06:34:03;;;;;;;11.90;8.30;;;9.80;99.90;;;;;;5007077;28;20246;-44
2021/04/20 06:36:30;;;;;;;10.00;7.87;;;9.90;99.90;;;;;;5018003;28;20242;-45
2021/04/20 06:38:58;;;;;;;10.17;7.07;;;10.20;99.90;;;;;;5007971;28;20249;-45
2021/04/20 06:41:28;;;;;;;11.90;7.67;;;10.50;99.90;;;;;;5009150;28;20240;-45
2021/04/20 06:44:00;;;;;;;8.87;6.30;;;10.70;99.90;;;;;;5024813;28;20247;-45
2021/04/20 06:46:35;;;;;;;10.17;6.23;;;10.80;99.90;;;;;;5023004;28;20246;-46
2021/04/20 06:49:11;;;;;;;9.80;6.10;;;11.00;99.90;;;;;;5023789;28;20970;-45
2021/04/20 06:51:43;;;;;;;12.50;6.43;;;11.10;99.90;;;;;;5018172;28;20593;-44
2021/04/20 06:54:20;;;;;;;10.27;6.17;;;11.20;99.90;;;;;;5025870;28;20708;-45
2021/04/20 06:56:51;;;;;;;8.23;5.77;;;11.40;99.90;;;;;;5026428;28;20721;-45
2021/04/20 06:59:30;;;;;;;8.17;5.67;;;11.50;99.90;;;;;;5015649;28;20711;-45
2021/04/20 07:02:06;;;;;;;11.33;6.00;;;11.50;99.90;;;;;;5014955;28;20253;-45
2021/04/20 07:04:45;;;;;;;8.33;5.30;;;11.60;99.90;;;;;;5026542;28;20234;-45
2021/04/20 07:07:36;;;;;;;9.00;6.07;;;11.80;99.90;;;;;;5027115;28;20242;-45
2021/04/20 07:10:11;;;;;;;8.33;5.90;;;12.10;99.90;;;;;;5024919;28;20244;-45
2021/04/20 07:12:42;;;;;;;10.43;6.10;;;12.20;99.90;;;;;;5026448;28;20595;-45
2021/04/20 07:15:13;;;;;;;8.87;6.17;;;12.40;99.90;;;;;;5019403;28;20670;-45
2021/04/20 07:18:00;;;;;;;10.20;6.30;;;12.70;99.90;;;;;;5022806;28;20315;-45
2021/04/20 07:20:50;;;;;;;8.80;5.97;;;12.80;99.90;;;;;;5009774;28;20250;-45
2021/04/20 07:23:57;;;;;;;9.57;5.90;;;12.80;99.90;;;;;;5007225;28;20305;-45
2021/04/20 07:26:44;;;;;;;9.37;5.93;;;12.80;99.90;;;;;;5008019;28;20231;-45
2021/04/20 07:29:31;;;;;;;7.40;5.83;;;13.20;99.90;;;;;;5025160;28;20699;-45
2021/04/20 07:32:15;;;;;;;11.63;6.20;;;13.60;99.90;;;;;;5011236;28;20245;-45
2021/04/20 07:34:51;;;;;;;9.97;6.40;;;13.60;99.90;;;;;;4992509;28;20271;-44
2021/04/20 07:37:38;;;;;;;9.30;6.43;;;13.80;99.90;;;;;;5002486;28;20251;-44
2021/04/20 07:40:18;;;;;;;10.77;6.30;;;13.80;99.90;;;;;;5005307;28;20240;-45
2021/04/20 07:43:02;;;;;;;9.60;6.23;;;13.90;99.90;;;;;;5010630;28;20295;-44
2021/04/20 07:45:39;;;;;;;9.33;6.17;;;14.30;99.90;;;;;;5002581;28;20244;-45
2021/04/20 07:48:14;;;;;;;9.53;5.80;;;14.60;99.90;;;;;;5005002;28;20767;-44
2021/04/20 07:50:47;;;;;;;8.03;5.77;;;14.80;99.90;;;;;;5003594;28;20783;-46
2021/04/20 07:53:25;;;;;;;9.37;5.40;;;15.10;99.90;;;;;;5010330;28;20771;-44
2021/04/20 07:56:00;;;;;;;9.10;5.63;;;15.10;99.90;;;;;;5014594;28;20238;-44
2021/04/20 07:58:34;;;;;;;8.73;5.00;;;15.10;99.90;;;;;;5010857;28;20241;-45
2021/04/20 08:01:07;;;;;;;10.27;5.70;;;15.10;99.90;;;;;;5003442;28;20248;-44
2021/04/20 08:03:45;;;;;;;7.37;5.60;;;15.20;99.90;;;;;;5012684;28;20290;-44
2021/04/20 08:06:21;;;;;;;9.70;5.43;;;15.30;99.90;;;;;;5025302;28;20626;-45
2021/04/20 08:08:53;;;;;;;7.47;5.53;;;15.40;99.90;;;;;;5030293;28;20278;-45
2021/04/20 08:11:31;;;;;;;8.73;5.93;;;15.20;99.90;;;;;;5029658;28;20232;-44
2021/04/20 08:14:09;;;;;;;9.20;5.80;;;15.10;99.90;;;;;;5029214;28;20294;-44
2021/04/20 08:16:42;;;;;;;7.80;5.83;;;15.30;99.90;;;;;;5026230;28;20286;-45
2021/04/20 08:19:18;;;;;;;8.53;6.53;;;15.40;99.90;;;;;;5013079;28;20283;-44
2021/04/20 08:21:49;;;;;;;9.30;6.13;;;15.60;99.90;;;;;;5026181;28;20236;-44
2021/04/20 08:24:23;;;;;;;7.13;5.40;;;15.80;99.90;;;;;;5026393;28;20258;-44
2021/04/20 08:26:57;;;;;;;7.33;5.47;;;16.00;99.90;;;;;;5016749;28;20914;-44
2021/04/20 08:29:28;;;;;;;8.27;5.70;;;16.30;99.90;;;;;;5014581;28;20290;-45
2021/04/20 08:32:00;;;;;;;7.80;5.43;;;16.60;99.90;;;;;;5014180;28;20245;-45
2021/04/20 08:34:41;;;;;;;8.70;5.73;;;16.70;99.90;;;;;;5009174;28;20319;-45
2021/04/20 08:37:32;;;;;;;8.90;5.47;;;16.80;99.90;;;;;;5010127;28;20241;-45
2021/04/20 08:40:16;;;;;;;6.27;5.00;;;17.20;99.90;;;;;;5005423;28;20245;-45
2021/04/20 08:43:20;;;;;;;7.87;5.13;;;17.20;99.90;;;;;;5008341;28;20424;-45
2021/04/20 08:45:59;;;;;;;7.03;5.13;;;17.10;99.90;;;;;;4999795;28;20292;-45
2021/04/20 08:48:38;;;;;;;8.17;4.80;;;17.00;99.90;;;;;;5008873;28;20652;-46
2021/04/20 08:51:14;;;;;;;9.03;4.73;;;16.90;99.90;;;;;;5007116;28;20226;-46
2021/04/20 08:54:12;;;;;;;6.17;4.83;;;17.10;99.90;;;;;;4990579;28;20669;-45
2021/04/20 08:56:49;;;;;;;11.23;5.10;;;17.20;99.90;;;;;;4990095;28;20318;-45
2021/04/20 08:59:52;;;;;;;7.43;4.50;;;17.10;99.90;;;;;;4989345;28;20240;-45
2021/04/20 09:02:47;;;;;;;5.47;4.10;;;17.40;99.90;;;;;;5015014;28;20251;-44
2021/04/20 09:05:25;;;;;;;6.90;4.37;;;17.60;99.90;;;;;;5024956;28;20231;-45
2021/04/20 09:07:58;;;;;;;7.57;4.07;;;17.40;99.50;;;;;;5010239;28;20233;-44
2021/04/20 09:10:32;;;;;;;9.37;4.10;;;17.50;99.90;;;;;;5011942;28;20319;-45
2021/04/20 09:13:09;;;;;;;7.50;4.20;;;17.50;99.60;;;;;;5028465;28;20256;-45
2021/04/20 09:15:43;;;;;;;9.37;4.43;;;17.60;99.90;;;;;;5022783;28;20224;-44
2021/04/20 09:18:17;;;;;;;5.23;4.07;;;17.90;99.90;;;;;;5016625;28;20644;-45
2021/04/20 09:20:59;;;;;;;7.93;4.17;;;17.50;99.90;;;;;;5024193;28;20570;-45
2021/04/20 09:23:38;;;;;;;7.83;4.33;;;17.70;99.40;;;;;;5023317;28;20300;-45
2021/04/20 09:26:20;;;;;;;6.27;3.77;;;17.50;98.30;;;;;;5018420;28;20241;-45
2021/04/20 09:29:00;;;;;;;10.10;3.80;;;18.00;99.30;;;;;;5026718;28;20295;-45
2021/04/20 09:31:40;;;;;;;8.77;3.87;;;18.30;97.50;;;;;;5026845;28;20317;-45
2021/04/20 09:34:12;;;;;;;7.60;3.80;;;18.30;97.00;;;;;;5027738;28;20241;-45
2021/04/20 09:36:41;;;;;;;11.97;3.70;;;18.50;98.30;;;;;;5028683;28;20245;-45
2021/04/20 09:39:09;;;;;;;6.80;3.70;;;19.00;98.70;;;;;;5021544;28;20247;-45
2021/04/20 09:41:41;;;;;;;5.07;3.33;;;19.30;98.60;;;;;;5026645;28;20253;-45
2021/04/20 09:44:33;;;;;;;7.43;3.77;;;19.20;96.20;;;;;;5024584;28;20243;-45
2021/04/20 09:47:54;;;;;;;6.43;4.10;;;19.40;96.90;;;;;;5026436;28;20246;-45
2021/04/20 09:50:31;;;;;;;5.07;3.53;;;19.10;94.20;;;;;;5011493;28;20238;-45
2021/04/20 09:53:28;;;;;;;8.00;3.80;;;19.20;94.70;;;;;;5026844;28;20292;-45
2021/04/20 09:56:08;;;;;;;5.60;3.43;;;19.40;95.60;;;;;;4994317;28;20313;-45
2021/04/20 09:58:40;;;;;;;7.17;3.90;;;19.30;94.10;;;;;;5007968;28;20254;-46
2021/04/20 10:01:29;;;;;;;8.17;3.83;;;19.20;94.50;;;;;;4998863;28;20245;-45
2021/04/20 10:04:06;;;;;;;6.53;3.23;;;19.50;95.40;;;;;;5013750;28;20706;-45
2021/04/20 10:07:09;;;;;;;5.20;3.07;;;19.00;93.20;;;;;;5015221;28;20243;-45
2021/04/20 10:09:46;;;;;;;4.70;3.27;;;19.20;91.30;;;;;;5011795;28;20239;-45
2021/04/20 10:12:28;;;;;;;6.27;3.00;;;19.30;90.80;;;;;;5013170;28;20602;-45
2021/04/20 10:15:10;;;;;;;4.83;2.97;;;19.10;89.00;;;;;;5016326;28;20729;-44
2021/04/20 10:17:49;;;;;;;5.13;2.60;;;19.20;88.30;;;;;;5014673;28;20768;-45
2021/04/20 10:20:21;;;;;;;4.53;2.50;;;19.00;89.00;;;;;;5013209;28;20248;-44
2021/04/20 10:22:57;;;;;;;5.37;3.20;;;19.20;88.10;;;;;;5015136;28;20243;-45
2021/04/20 10:25:36;;;;;;;6.83;3.30;;;19.50;87.90;;;;;;5016027;28;20255;-45
2021/04/20 10:28:13;;;;;;;3.87;2.90;;;19.60;87.70;;;;;;5015724;28;20656;-45
2021/04/20 10:30:46;;;;;;;4.50;2.90;;;19.60;85.70;;;;;;5006861;28;20243;-45
2021/04/20 10:33:22;;;;;;;6.70;2.90;;;19.80;84.80;;;;;;4996615;28;21430;-44
2021/04/20 10:35:55;;;;;;;4.30;3.23;;;19.40;83.40;;;;;;5000599;28;20703;-45
2021/04/20 10:38:30;;;;;;;6.87;3.00;;;19.60;80.80;;;;;;5014856;28;20527;-44
2021/04/20 10:40:58;;;;;;;4.83;2.77;;;19.50;81.70;;;;;;5033741;28;20269;-45
2021/04/20 10:43:30;;;;;;;7.27;2.80;;;19.50;80.30;;;;;;5035676;28;20312;-45
2021/04/20 10:46:08;;;;;;;4.93;2.80;;;19.80;81.60;;;;;;5008804;28;20239;-45
2021/04/20 10:48:37;;;;;;;4.87;2.53;;;19.80;78.40;;;;;;5001945;28;20306;-44
2021/04/20 10:51:09;;;;;;;4.23;2.53;;;19.70;78.70;;;;;;5021759;28;20252;-45
2021/04/20 10:53:40;;;;;;;5.33;2.83;;;19.90;80.10;;;;;;5010802;28;20729;-45
2021/04/20 10:56:13;;;;;;;3.77;2.53;;;20.00;78.00;;;;;;5002717;28;20237;-45
2021/04/20 10:58:44;;;;;;;5.30;2.90;;;20.00;79.90;;;;;;5007208;28;20240;-45
2021/04/20 11:01:21;;;;;;;4.30;2.90;;;20.30;77.90;;;;;;4998330;28;20248;-45
2021/04/20 11:03:52;;;;;;;4.30;2.93;;;20.30;75.60;;;;;;4996247;28;20251;-45
2021/04/20 11:07:17;;;;;;;3.93;2.63;;;20.20;76.40;;;;;;5000354;28;20339;-45
2021/04/20 11:09:46;;;;;;;6.20;3.20;;;19.90;77.40;;;;;;5017170;28;20242;-44
2021/04/20 11:12:17;;;;;;;4.73;2.90;;;20.20;77.90;;;;;;5019001;28;20754;-45
2021/04/20 11:14:47;;;;;;;5.53;3.00;;;20.20;75.60;;;;;;5019896;28;20333;-45
2021/04/20 11:17:28;;;;;;;4.27;2.80;;;20.40;72.20;;;;;;5022252;28;20701;-44
2021/04/20 11:20:10;;;;;;;3.93;2.37;;;20.30;70.70;;;;;;5003567;28;20773;-45
2021/04/20 11:22:50;;;;;;;6.63;2.83;;;20.30;74.10;;;;;;5016360;28;20320;-45
2021/04/20 11:25:24;;;;;;;6.07;2.90;;;20.50;76.40;;;;;;5023814;28;20276;-44
2021/04/20 11:27:58;;;;;;;5.83;2.90;;;21.00;71.90;;;;;;5022762;28;20246;-45
2021/04/20 11:30:34;;;;;;;9.10;3.23;;;20.70;69.60;;;;;;5021098;28;20699;-44
2021/04/20 11:33:09;;;;;;;5.73;2.90;;;20.40;71.80;;;;;;5021916;28;20332;-44
2021/04/20 11:35:43;;;;;;;4.27;2.73;;;20.20;71.00;;;;;;5022692;28;20636;-45
2021/04/20 11:38:13;;;;;;;5.63;2.90;;;20.40;74.40;;;;;;5020783;28;20257;-44
2021/04/20 11:40:48;;;;;;;6.57;3.10;;;20.50;75.40;;;;;;5023308;28;20229;-45
2021/04/20 11:43:16;;;;;;;4.70;3.00;;;20.90;74.10;;;;;;5015856;28;20255;-45
2021/04/20 11:45:46;;;;;;;8.87;2.70;;;20.70;72.10;;;;;;5027733;28;20232;-44
2021/04/20 11:48:17;;;;;;;4.57;2.50;;;20.20;69.70;;;;;;5028692;28;20254;-46
2021/04/20 11:50:53;;;;;;;5.03;2.87;;;20.70;76.70;;;;;;5027673;28;20259;-44
2021/04/20 11:53:49;;;;;;;4.10;2.60;;;21.20;72.00;;;;;;5016562;28;20329;-44
2021/04/20 11:56:17;;;;;;;4.37;2.53;;;20.60;70.00;;;;;;5029211;28;20248;-44
2021/04/20 11:58:48;;;;;;;4.83;2.87;;;20.40;70.20;;;;;;5028789;28;20245;-44
2021/04/20 12:01:18;;;;;;;5.73;2.57;;;20.00;71.50;;;;;;5028497;28;20232;-44
2021/04/20 12:03:54;;;;;;;3.40;3.00;;;19.70;68.30;;;;;;5022975;28;20286;-44
2021/04/20 12:06:23;;;;;;;4.40;3.00;;;19.70;68.40;;;;;;5010709;28;20236;-44
2021/04/20 12:08:55;;;;;;;5.50;2.40;;;19.80;69.70;;;;;;5017993;28;20724;-44
2021/04/20 12:11:26;;;;;;;5.63;2.70;;;19.80;68.80;;;;;;5017667;28;20237;-44
2021/04/20 12:13:55;;;;;;;4.70;3.03;;;19.70;71.70;;;;;;5018810;28;20315;-44
2021/04/20 12:16:24;;;;;;;3.80;2.70;;;20.00;71.60;;;;;;5030169;28;20236;-44
2021/04/20 12:18:54;;;;;;;4.73;2.47;;;19.70;67.30;;;;;;5030278;28;20244;-44
2021/04/20 12:21:26;;;;;;;3.50;2.53;;;19.50;69.50;;;;;;5029644;28;20236;-44
2021/04/20 12:23:56;;;;;;;3.73;2.53;;;19.10;68.00;;;;;;5014016;28;20240;-45
2021/04/20 12:26:26;;;;;;;6.97;3.07;;;19.20;72.00;;;;;;5010513;28;20228;-44
2021/04/20 12:28:58;;;;;;;3.53;2.47;;;19.50;71.80;;;;;;5018685;28;20274;-44
2021/04/20 12:31:30;;;;;;;4.30;2.50;;;19.60;66.60;;;;;;5029253;28;20662;-44
2021/04/20 12:33:59;;;;;;;5.30;3.30;;;19.60;67.40;;;;;;5026453;28;20247;-44
2021/04/20 12:36:31;;;;;;;4.43;2.80;;;19.50;67.70;;;;;;5036842;28;20244;-44
2021/04/20 12:39:03;;;;;;;6.10;2.67;;;19.10;67.40;;;;;;5041313;28;20243;-44
2021/04/20 12:41:40;;;;;;;4.90;2.70;;;19.20;68.60;;;;;;3284842;28;10002474;-46
2021/04/20 12:44:14;;;;;;;3.47;2.70;;;19.40;69.20;;;;;;2914072;28;10001943;-44
2021/04/20 12:46:42;;;;;;;5.10;2.50;;;19.70;67.90;;;;;;4974835;28;20491;-44
2021/04/20 12:49:10;;;;;;;5.70;2.70;;;19.70;65.10;;;;;;4981241;28;21867;-44
2021/04/20 12:51:41;;;;;;;4.57;2.60;;;19.60;66.10;;;;;;4983023;28;20265;-44
2021/04/20 12:54:11;;;;;;;6.60;3.10;;;19.40;65.20;;;;;;4978461;28;20538;-46
2021/04/20 12:56:42;;;;;;;6.13;3.27;;;18.90;66.80;;;;;;4971936;28;20233;-44
2021/04/20 12:59:19;;;;;;;4.80;3.07;;;18.70;69.20;;;;;;4978181;28;20245;-44
2021/04/20 13:01:53;;;;;;;6.43;3.30;;;18.60;69.50;;;;;;4977354;28;20642;-44
2021/04/20 13:04:26;;;;;;;7.10;2.93;;;18.30;68.10;;;;;;4973306;28;20514;-44
2021/04/20 13:06:55;;;;;;;6.63;3.00;;;18.20;71.20;;;;;;4974815;28;20303;-44
2021/04/20 13:09:26;;;;;;;3.97;2.90;;;18.30;72.40;;;;;;4970993;28;20249;-44
2021/04/20 13:11:55;;;;;;;6.33;2.93;;;18.20;70.70;;;;;;4971609;28;20256;-44
2021/04/20 13:14:24;;;;;;;4.40;2.87;;;18.10;71.10;;;;;;4972599;28;20743;-43
2021/04/20 13:16:54;;;;;;;6.67;3.30;;;17.90;72.70;;;;;;4972658;28;20271;-44
2021/04/20 13:19:25;;;;;;;4.63;2.93;;;18.00;72.40;;;;;;4964799;28;20736;-44